createdAt,value
2018-04-10T00:00:31.274Z,18.44
2018-04-10T00:01:11.882Z,18.37
2018-04-10T00:01:52.254Z,18.47
2018-04-10T00:02:32.758Z,18.42
2018-04-10T00:03:13.234Z,18.5
2018-04-10T00:03:53.751Z,18.35
2018-04-10T00:04:34.289Z,18.35
2018-04-10T00:05:14.769Z,18.35
2018-04-10T00:05:55.245Z,18.41
2018-04-10T00:06:35.714Z,18.36
2018-04-10T00:07:16.257Z,18.33
2018-04-10T00:07:56.692Z,18.37
2018-04-10T00:08:37.236Z,18.33
2018-04-10T00:09:17.725Z,18.33
2018-04-10T00:09:58.214Z,18.36
2018-04-10T00:10:38.720Z,18.33
2018-04-10T00:11:19.180Z,18.27
2018-04-10T00:11:59.707Z,18.35
2018-04-10T00:12:40.162Z,18.25
2018-04-10T00:13:20.617Z,18.3
2018-04-10T00:14:01.113Z,18.25
2018-04-10T00:14:41.655Z,18.2
2018-04-10T00:15:22.180Z,18.2
2018-04-10T00:16:02.658Z,18.29
2018-04-10T00:16:43.154Z,18.3
2018-04-10T00:17:23.644Z,18.27
2018-04-10T00:18:04.106Z,18.26
2018-04-10T00:18:44.618Z,18.23
2018-04-10T00:19:25.090Z,18.2
2018-04-10T00:20:05.579Z,18.21
2018-04-10T00:20:46.115Z,18.25
2018-04-10T00:21:26.596Z,18.25
2018-04-10T00:22:07.091Z,18.21
2018-04-10T00:22:47.530Z,18.27
2018-04-10T00:23:28.034Z,18.18
2018-04-10T00:24:08.546Z,18.17
2018-04-10T00:24:49.018Z,18.27
2018-04-10T00:25:29.536Z,18.23
2018-04-10T00:26:10.023Z,18.29
2018-04-10T00:26:50.544Z,18.29
2018-04-10T00:27:31.083Z,18.25
2018-04-10T00:28:11.536Z,18.26
2018-04-10T00:28:52.025Z,18.25
2018-04-10T00:29:32.532Z,18.18
2018-04-10T00:30:13.002Z,18.26
2018-04-10T00:30:53.532Z,18.2
2018-04-10T00:31:34.183Z,18.12
2018-04-10T00:32:14.641Z,18.25
2018-04-10T00:32:55.109Z,18.27
2018-04-10T00:33:35.684Z,18.17
2018-04-10T00:34:16.098Z,18.1
2018-04-10T00:34:56.620Z,18.14
2018-04-10T00:35:37.100Z,18.1
2018-04-10T00:36:17.620Z,18.11
2018-04-10T00:36:58.126Z,18.11
2018-04-10T00:37:38.629Z,18.07
2018-04-10T00:38:19.228Z,18.08
2018-04-10T00:38:59.595Z,18.08
2018-04-10T00:39:40.139Z,18.1
2018-04-10T00:40:20.629Z,18.07
2018-04-10T00:41:01.095Z,17.96
2018-04-10T00:41:41.622Z,18
2018-04-10T00:42:22.073Z,18.11
2018-04-10T00:43:02.612Z,17.92
2018-04-10T00:43:43.085Z,17.92
2018-04-10T00:44:23.816Z,17.95
2018-04-10T00:45:04.315Z,17.96
2018-04-10T00:45:44.784Z,17.99
2018-04-10T00:46:25.301Z,17.96
2018-04-10T00:47:05.767Z,17.95
2018-04-10T00:47:46.295Z,17.93
2018-04-10T00:48:26.850Z,18.03
2018-04-10T00:49:07.391Z,17.95
2018-04-10T00:49:47.842Z,18.03
2018-04-10T00:50:28.324Z,17.92
2018-04-10T00:51:08.797Z,17.93
2018-04-10T00:51:49.402Z,17.95
2018-04-10T00:52:29.856Z,18.03
2018-04-10T00:53:10.385Z,18.1
2018-04-10T00:53:50.853Z,18.03
2018-04-10T00:54:31.329Z,18.02
2018-04-10T00:55:11.828Z,18.07
2018-04-10T00:55:52.300Z,18.05
2018-04-10T00:56:32.830Z,17.95
2018-04-10T00:57:13.595Z,17.87
2018-04-10T00:57:54.040Z,17.93
2018-04-10T00:58:34.526Z,17.99
2018-04-10T00:59:15.090Z,17.93
2018-04-10T00:59:55.568Z,17.95
2018-04-10T01:00:36.072Z,17.95
2018-04-10T01:01:16.560Z,17.96
2018-04-10T01:01:57.034Z,17.96
2018-04-10T01:02:37.514Z,18.03
2018-04-10T01:03:18.031Z,18
2018-04-10T01:03:58.505Z,18.03
2018-04-10T01:04:38.984Z,17.93
2018-04-10T01:05:19.479Z,17.97
2018-04-10T01:05:59.979Z,17.97
2018-04-10T01:06:40.451Z,17.92
2018-04-10T01:07:20.959Z,17.84
2018-04-10T01:08:01.456Z,17.82
2018-04-10T01:08:42.017Z,17.96
2018-04-10T01:09:22.422Z,17.95
2018-04-10T01:10:02.960Z,17.95
2018-04-10T01:10:43.444Z,18
2018-04-10T01:11:23.925Z,17.92
2018-04-10T01:12:04.413Z,17.99
2018-04-10T01:12:44.923Z,17.92
2018-04-10T01:13:25.416Z,17.96
2018-04-10T01:14:05.900Z,17.93
2018-04-10T01:14:46.453Z,17.9
2018-04-10T01:15:26.923Z,17.93
2018-04-10T01:16:07.370Z,18.02
2018-04-10T01:16:47.873Z,17.93
2018-04-10T01:17:28.356Z,18.02
2018-04-10T01:18:08.829Z,17.93
2018-04-10T01:18:49.363Z,17.86
2018-04-10T01:19:29.827Z,17.87
2018-04-10T01:20:10.332Z,17.81
2018-04-10T01:20:50.824Z,17.92
2018-04-10T01:21:31.341Z,17.87
2018-04-10T01:22:11.792Z,17.89
2018-04-10T01:22:52.267Z,17.93
2018-04-10T01:23:32.790Z,17.95
2018-04-10T01:24:13.256Z,17.96
2018-04-10T01:24:53.783Z,17.86
2018-04-10T01:25:34.321Z,17.9
2018-04-10T01:26:14.751Z,17.89
2018-04-10T01:26:55.239Z,17.97
2018-04-10T01:27:35.748Z,17.9
2018-04-10T01:28:16.270Z,17.87
2018-04-10T01:28:56.718Z,17.82
2018-04-10T01:29:37.192Z,17.87
2018-04-10T01:30:17.700Z,17.93
2018-04-10T01:30:58.230Z,17.92
2018-04-10T01:31:38.702Z,17.87
2018-04-10T01:32:19.206Z,17.86
2018-04-10T01:32:59.725Z,18
2018-04-10T01:33:40.184Z,18.02
2018-04-10T01:34:20.729Z,17.95
2018-04-10T01:35:01.183Z,17.84
2018-04-10T01:35:41.698Z,17.92
2018-04-10T01:36:22.182Z,17.84
2018-04-10T01:37:02.686Z,17.9
2018-04-10T01:37:43.173Z,17.95
2018-04-10T01:38:23.680Z,17.87
2018-04-10T01:39:04.142Z,17.87
2018-04-10T01:39:44.663Z,18.03
2018-04-10T01:40:25.158Z,18.03
2018-04-10T01:41:05.786Z,18.02
2018-04-10T01:41:46.284Z,17.89
2018-04-10T01:42:26.787Z,17.89
2018-04-10T01:43:07.277Z,17.75
2018-04-10T01:43:47.787Z,17.74
2018-04-10T01:44:28.261Z,17.74
2018-04-10T01:45:08.773Z,17.75
2018-04-10T01:45:49.255Z,17.84
2018-04-10T01:46:29.774Z,17.77
2018-04-10T01:47:10.283Z,17.79
2018-04-10T01:47:50.776Z,17.71
2018-04-10T01:48:31.234Z,17.72
2018-04-10T01:49:11.707Z,17.77
2018-04-10T01:51:10.211Z,17.75
2018-04-10T01:51:50.703Z,17.75
2018-04-10T01:52:31.203Z,17.86
2018-04-10T01:53:11.702Z,17.89
2018-04-10T01:53:52.168Z,17.96
2018-04-10T01:55:41.938Z,17.87
2018-04-10T01:56:22.437Z,17.71
2018-04-10T01:57:02.968Z,17.75
2018-04-10T01:57:43.494Z,17.7
2018-04-10T01:58:23.963Z,17.75
2018-04-10T01:59:04.461Z,17.77
2018-04-10T01:59:44.918Z,17.71
2018-04-10T02:00:25.445Z,17.77
2018-04-10T02:01:05.893Z,17.87
2018-04-10T02:01:46.357Z,17.89
2018-04-10T02:02:26.858Z,17.92
2018-04-10T02:03:07.350Z,17.9
2018-04-10T02:03:47.853Z,17.95
2018-04-10T02:04:28.313Z,17.84
2018-04-10T02:05:08.819Z,17.9
2018-04-10T02:05:49.291Z,17.9
2018-04-10T02:06:29.836Z,17.9
2018-04-10T02:07:10.296Z,17.87
2018-04-10T02:07:50.745Z,17.87
2018-04-10T02:08:31.246Z,18.02
2018-04-10T02:09:11.696Z,17.86
2018-04-10T02:09:52.242Z,17.9
2018-04-10T02:10:32.689Z,17.86
2018-04-10T02:11:13.147Z,17.77
2018-04-10T02:11:53.636Z,17.89
2018-04-10T02:12:34.147Z,17.81
2018-04-10T02:13:14.619Z,17.86
2018-04-10T02:13:55.116Z,17.89
2018-04-10T02:14:35.645Z,17.86
2018-04-10T02:15:16.131Z,17.81
2018-04-10T02:15:56.657Z,17.74
2018-04-10T02:16:37.116Z,17.75
2018-04-10T02:17:17.630Z,17.84
2018-04-10T02:17:58.070Z,17.9
2018-04-10T02:18:38.551Z,17.84
2018-04-10T02:19:19.048Z,17.82
2018-04-10T02:19:59.563Z,17.86
2018-04-10T02:20:40.131Z,17.97
2018-04-10T02:21:20.510Z,17.89
2018-04-10T02:22:01.033Z,17.95
2018-04-10T02:22:41.474Z,17.96
2018-04-10T02:23:21.965Z,17.84
2018-04-10T02:24:02.491Z,18
2018-04-10T02:24:42.968Z,17.84
2018-04-10T02:25:23.560Z,17.79
2018-04-10T02:26:04.025Z,17.77
2018-04-10T02:26:44.524Z,17.71
2018-04-10T02:27:25.017Z,17.79
2018-04-10T02:28:05.524Z,17.75
2018-04-10T02:28:45.983Z,17.81
2018-04-10T02:29:26.525Z,17.77
2018-04-10T02:30:07.013Z,17.68
2018-04-10T02:30:47.516Z,17.64
2018-04-10T02:31:28.009Z,17.71
2018-04-10T02:32:08.537Z,17.7
2018-04-10T02:32:49.015Z,17.59
2018-04-10T02:33:29.537Z,17.7
2018-04-10T02:34:09.985Z,17.7
2018-04-10T02:34:50.518Z,17.79
2018-04-10T02:35:31.031Z,17.71
2018-04-10T02:36:11.579Z,17.78
2018-04-10T02:36:52.028Z,17.72
2018-04-10T02:37:32.506Z,17.72
2018-04-10T02:38:13.055Z,17.68
2018-04-10T02:38:53.483Z,17.75
2018-04-10T02:39:34.004Z,17.74
2018-04-10T02:40:14.464Z,17.75
2018-04-10T02:40:54.978Z,17.75
2018-04-10T02:41:35.514Z,17.74
2018-04-10T02:42:16.011Z,17.74
2018-04-10T02:42:56.632Z,17.74
2018-04-10T02:43:37.046Z,17.77
2018-04-10T02:44:17.528Z,17.78
2018-04-10T02:44:58.035Z,17.84
2018-04-10T02:45:38.509Z,17.86
2018-04-10T02:46:18.952Z,17.87
2018-04-10T02:46:59.455Z,17.84
2018-04-10T02:47:39.935Z,17.92
2018-04-10T02:48:20.455Z,17.86
2018-04-10T02:49:00.940Z,17.97
2018-04-10T02:49:41.450Z,17.87
2018-04-10T02:50:21.920Z,17.9
2018-04-10T02:51:02.394Z,17.86
2018-04-10T02:51:42.892Z,17.9
2018-04-10T02:52:23.383Z,17.93
2018-04-10T02:53:03.874Z,17.79
2018-04-10T02:53:44.354Z,17.87
2018-04-10T02:54:24.847Z,17.72
2018-04-10T02:55:05.348Z,17.77
2018-04-10T02:55:45.846Z,17.74
2018-04-10T02:56:26.378Z,17.71
2018-04-10T02:57:06.804Z,17.77
2018-04-10T02:57:47.264Z,17.74
2018-04-10T02:58:27.821Z,17.84
2018-04-10T02:59:12.744Z,17.86
2018-04-10T02:59:53.280Z,18.02
2018-04-10T03:00:33.738Z,17.93
2018-04-10T03:01:14.273Z,17.95
2018-04-10T03:01:54.787Z,17.9
2018-04-10T03:02:35.197Z,17.9
2018-04-10T03:03:15.746Z,17.84
2018-04-10T03:03:56.188Z,17.89
2018-04-10T03:04:36.643Z,17.9
2018-04-10T03:05:17.237Z,18.03
2018-04-10T03:05:57.733Z,17.92
2018-04-10T03:06:38.200Z,17.86
2018-04-10T03:07:18.659Z,17.9
2018-04-10T03:07:59.188Z,17.84
2018-04-10T03:08:39.678Z,17.9
2018-04-10T03:09:20.178Z,17.9
2018-04-10T03:10:00.659Z,17.93
2018-04-10T03:10:41.180Z,17.95
2018-04-10T03:11:21.668Z,18
2018-04-10T03:12:02.183Z,17.87
2018-04-10T03:12:42.657Z,17.97
2018-04-10T03:13:23.164Z,18
2018-04-10T03:14:03.655Z,17.92
2018-04-10T03:14:44.124Z,17.96
2018-04-10T03:15:24.614Z,17.97
2018-04-10T03:16:05.127Z,17.84
2018-04-10T03:16:45.610Z,17.81
2018-04-10T03:17:26.077Z,17.92
2018-04-10T03:18:06.556Z,17.87
2018-04-10T03:18:47.054Z,17.89
2018-04-10T03:19:27.567Z,17.86
2018-04-10T03:20:08.156Z,17.82
2018-04-10T03:20:48.683Z,17.89
2018-04-10T03:21:29.278Z,17.81
2018-04-10T03:22:09.826Z,17.86
2018-04-10T03:22:50.369Z,17.89
2018-04-10T03:23:30.794Z,17.89
2018-04-10T03:24:11.308Z,17.87
2018-04-10T03:24:51.803Z,17.82
2018-04-10T03:25:32.314Z,17.93
2018-04-10T03:26:12.808Z,17.93
2018-04-10T03:26:53.293Z,17.92
2018-04-10T03:27:33.790Z,17.86
2018-04-10T03:28:14.300Z,17.96
2018-04-10T03:28:54.820Z,17.87
2018-04-10T03:29:35.284Z,17.82
2018-04-10T03:30:15.796Z,17.87
2018-04-10T03:30:56.291Z,17.95
2018-04-10T03:31:36.740Z,17.89
2018-04-10T03:32:17.263Z,17.9
2018-04-10T03:32:57.739Z,17.82
2018-04-10T03:33:38.221Z,17.82
2018-04-10T03:34:18.735Z,17.92
2018-04-10T03:34:59.210Z,17.79
2018-04-10T03:35:39.729Z,17.77
2018-04-10T03:36:20.256Z,17.82
2018-04-10T03:37:00.749Z,17.79
2018-04-10T03:37:41.387Z,17.72
2018-04-10T03:38:21.836Z,17.74
2018-04-10T03:39:02.382Z,17.78
2018-04-10T03:39:42.869Z,17.77
2018-04-10T03:40:23.358Z,17.74
2018-04-10T03:41:03.814Z,17.74
2018-04-10T03:41:44.319Z,17.9
2018-04-10T03:42:24.827Z,17.84
2018-04-10T03:43:05.358Z,17.81
2018-04-10T03:43:45.809Z,17.72
2018-04-10T03:44:26.308Z,17.77
2018-04-10T03:45:06.800Z,17.81
2018-04-10T03:45:47.258Z,17.77
2018-04-10T03:46:27.934Z,17.75
2018-04-10T03:47:08.441Z,17.78
2018-04-10T03:47:48.897Z,17.75
2018-04-10T03:48:29.452Z,17.74
2018-04-10T03:49:09.892Z,17.79
2018-04-10T03:49:50.408Z,17.79
2018-04-10T03:50:30.897Z,17.78
2018-04-10T03:51:11.402Z,17.75
2018-04-10T03:51:51.830Z,17.71
2018-04-10T03:52:32.518Z,17.72
2018-04-10T03:53:13.001Z,17.71
2018-04-10T03:53:53.453Z,17.78
2018-04-10T03:54:34.009Z,17.68
2018-04-10T03:55:14.497Z,17.7
2018-04-10T03:55:55.010Z,17.63
2018-04-10T03:56:35.513Z,17.64
2018-04-10T03:57:16.007Z,17.59
2018-04-10T03:57:56.511Z,17.63
2018-04-10T03:58:36.964Z,17.55
2018-04-10T03:59:17.560Z,17.62
2018-04-10T03:59:58.066Z,17.7
2018-04-10T04:00:38.550Z,17.56
2018-04-10T04:01:19.064Z,17.55
2018-04-10T04:01:59.687Z,17.52
2018-04-10T04:02:40.142Z,17.62
2018-04-10T04:03:20.687Z,17.52
2018-04-10T04:04:01.265Z,17.49
2018-04-10T04:04:41.685Z,17.51
2018-04-10T04:05:22.176Z,17.43
2018-04-10T04:06:02.688Z,17.52
2018-04-10T04:06:43.189Z,17.48
2018-04-10T04:07:23.693Z,17.43
2018-04-10T04:08:04.156Z,17.43
2018-04-10T04:08:44.710Z,17.51
2018-04-10T04:09:25.170Z,17.51
2018-04-10T04:10:05.756Z,17.51
2018-04-10T04:10:46.194Z,17.52
2018-04-10T04:11:26.645Z,17.54
2018-04-10T04:12:07.184Z,17.51
2018-04-10T04:12:47.731Z,17.59
2018-04-10T04:13:28.183Z,17.52
2018-04-10T04:14:08.662Z,17.55
2018-04-10T04:14:49.159Z,17.52
2018-04-10T04:15:29.645Z,17.54
2018-04-10T04:16:10.119Z,17.56
2018-04-10T04:16:50.643Z,17.54
2018-04-10T04:17:31.157Z,17.46
2018-04-10T04:18:11.587Z,17.46
2018-04-10T04:18:52.132Z,17.34
2018-04-10T04:19:32.640Z,17.41
2018-04-10T04:20:13.092Z,17.44
2018-04-10T04:20:53.573Z,17.49
2018-04-10T04:21:34.086Z,17.44
2018-04-10T04:22:14.598Z,17.48
2018-04-10T04:22:55.044Z,17.52
2018-04-10T04:23:35.529Z,17.52
2018-04-10T04:24:16.038Z,17.41
2018-04-10T04:24:56.525Z,17.51
2018-04-10T04:25:37.032Z,17.46
2018-04-10T04:26:17.523Z,17.51
2018-04-10T04:26:58.027Z,17.37
2018-04-10T04:27:38.537Z,17.49
2018-04-10T04:28:19.041Z,17.48
2018-04-10T04:28:59.580Z,17.41
2018-04-10T04:29:40.058Z,17.43
2018-04-10T04:30:20.560Z,17.49
2018-04-10T04:31:01.076Z,17.44
2018-04-10T04:31:41.532Z,17.51
2018-04-10T04:32:22.031Z,17.51
2018-04-10T04:33:02.538Z,17.41
2018-04-10T04:33:43.029Z,17.58
2018-04-10T04:34:23.585Z,17.51
2018-04-10T04:35:04.068Z,17.48
2018-04-10T04:35:44.587Z,17.54
2018-04-10T04:36:25.095Z,17.48
2018-04-10T04:37:05.573Z,17.43
2018-04-10T04:37:46.115Z,17.41
2018-04-10T04:38:26.631Z,17.54
2018-04-10T04:39:07.106Z,17.48
2018-04-10T04:39:47.617Z,17.51
2018-04-10T04:40:28.173Z,17.52
2018-04-10T04:41:08.654Z,17.51
2018-04-10T04:41:49.116Z,17.54
2018-04-10T04:42:29.611Z,17.55
2018-04-10T04:43:10.120Z,17.59
2018-04-10T04:43:50.641Z,17.51
2018-04-10T04:44:31.106Z,17.48
2018-04-10T04:45:11.603Z,17.51
2018-04-10T04:45:52.084Z,17.59
2018-04-10T04:46:32.585Z,17.51
2018-04-10T04:47:13.224Z,17.54
2018-04-10T04:47:53.728Z,17.48
2018-04-10T04:49:42.333Z,17.51
2018-04-10T04:50:22.854Z,17.48
2018-04-10T04:51:03.383Z,17.48
2018-04-10T04:51:43.908Z,17.41
2018-04-10T04:52:24.434Z,17.49
2018-04-10T04:53:05.108Z,17.49
2018-04-10T04:53:45.636Z,17.54
2018-04-10T04:54:26.146Z,17.44
2018-04-10T04:55:06.642Z,17.51
2018-04-10T04:55:47.154Z,17.4
2018-04-10T04:56:27.670Z,17.48
2018-04-10T04:57:08.171Z,17.41
2018-04-10T04:57:48.683Z,17.48
2018-04-10T04:58:29.194Z,17.41
2018-04-10T04:59:09.703Z,17.46
2018-04-10T04:59:50.228Z,17.41
2018-04-10T05:00:30.744Z,17.48
2018-04-10T05:01:11.246Z,17.51
2018-04-10T05:01:51.880Z,17.44
2018-04-10T05:02:32.295Z,17.43
2018-04-10T05:03:12.802Z,17.44
2018-04-10T05:03:53.284Z,17.52
2018-04-10T05:04:33.752Z,17.49
2018-04-10T05:05:14.275Z,17.49
2018-04-10T05:05:54.803Z,17.51
2018-04-10T05:06:35.315Z,17.37
2018-04-10T05:07:15.832Z,17.41
2018-04-10T05:07:56.360Z,17.43
2018-04-10T05:08:36.881Z,17.37
2018-04-10T05:09:17.400Z,17.37
2018-04-10T05:09:57.900Z,17.34
2018-04-10T05:10:38.423Z,17.36
2018-04-10T05:11:18.940Z,17.38
2018-04-10T05:11:59.469Z,17.36
2018-04-10T05:12:39.994Z,17.43
2018-04-10T05:13:20.489Z,17.38
2018-04-10T05:14:01.008Z,17.41
2018-04-10T05:14:41.475Z,17.46
2018-04-10T05:15:22.027Z,17.41
2018-04-10T05:16:02.545Z,17.38
2018-04-10T05:16:43.050Z,17.48
2018-04-10T05:17:23.835Z,17.48
2018-04-10T05:18:04.337Z,17.43
2018-04-10T05:18:44.844Z,17.54
2018-04-10T05:19:25.312Z,17.48
2018-04-10T05:20:05.838Z,17.49
2018-04-10T05:20:46.330Z,17.48
2018-04-10T05:21:26.792Z,17.55
2018-04-10T05:22:07.298Z,17.54
2018-04-10T05:22:47.850Z,17.49
2018-04-10T05:23:28.362Z,17.51
2018-04-10T05:24:08.874Z,17.44
2018-04-10T05:24:49.389Z,17.48
2018-04-10T05:25:29.875Z,17.48
2018-04-10T05:26:10.361Z,17.63
2018-04-10T05:26:50.876Z,17.55
2018-04-10T05:28:44.073Z,17.56
2018-04-10T05:29:24.583Z,17.63
2018-04-10T05:30:05.109Z,17.63
2018-04-10T05:30:45.669Z,17.7
2018-04-10T05:31:26.163Z,17.62
2018-04-10T05:32:06.680Z,17.66
2018-04-10T05:32:47.197Z,17.66
2018-04-10T05:33:27.722Z,17.7
2018-04-10T05:34:08.536Z,17.66
2018-04-10T05:34:49.189Z,17.64
2018-04-10T05:35:29.709Z,17.72
2018-04-10T05:36:10.225Z,17.58
2018-04-10T05:36:50.730Z,17.64
2018-04-10T05:37:31.252Z,17.66
2018-04-10T05:38:11.759Z,17.72
2018-04-10T05:38:52.286Z,17.77
2018-04-10T05:39:32.795Z,17.71
2018-04-10T05:40:13.308Z,17.66
2018-04-10T05:40:53.830Z,17.78
2018-04-10T05:41:34.411Z,17.77
2018-04-10T05:42:14.920Z,17.74
2018-04-10T05:42:55.487Z,17.77
2018-04-10T05:43:35.989Z,17.82
2018-04-10T05:44:16.512Z,17.78
2018-04-10T05:44:57.037Z,17.9
2018-04-10T05:45:37.562Z,17.82
2018-04-10T05:46:18.074Z,17.74
2018-04-10T05:46:58.708Z,17.74
2018-04-10T05:47:39.112Z,17.79
2018-04-10T05:48:19.641Z,17.81
2018-04-10T05:49:00.155Z,17.82
2018-04-10T05:49:40.659Z,17.89
2018-04-10T05:50:21.181Z,17.87
2018-04-10T05:51:01.687Z,17.89
2018-04-10T05:51:42.189Z,17.93
2018-04-10T05:52:22.852Z,17.95
2018-04-10T05:53:03.362Z,18.1
2018-04-10T05:53:43.870Z,18.07
2018-04-10T05:54:24.379Z,18.2
2018-04-10T05:55:04.927Z,18.21
2018-04-10T05:55:45.450Z,18.33
2018-04-10T05:56:25.971Z,18.3
2018-04-10T05:57:06.489Z,18.5
2018-04-10T05:57:46.993Z,18.47
2018-04-10T05:58:27.501Z,18.5
2018-04-10T05:59:08.028Z,18.51
2018-04-10T05:59:48.548Z,18.47
2018-04-10T06:00:29.060Z,18.6
2018-04-10T06:01:09.586Z,18.57
2018-04-10T06:01:50.093Z,18.54
2018-04-10T06:02:30.578Z,18.54
2018-04-10T06:03:11.094Z,18.67
2018-04-10T06:03:51.587Z,18.58
2018-04-10T06:04:32.093Z,18.6
2018-04-10T06:05:12.617Z,18.55
2018-04-10T06:05:53.139Z,18.62
2018-04-10T06:06:33.661Z,18.75
2018-04-10T06:07:14.201Z,18.73
2018-04-10T06:07:54.798Z,18.85
2018-04-10T06:08:35.221Z,18.94
2018-04-10T06:09:15.720Z,18.95
2018-04-10T06:09:56.386Z,18.81
2018-04-10T06:10:36.915Z,18.75
2018-04-10T06:11:17.420Z,18.73
2018-04-10T06:11:57.937Z,18.85
2018-04-10T06:12:38.442Z,18.88
2018-04-10T06:13:18.972Z,18.94
2018-04-10T06:13:59.442Z,19.07
2018-04-10T06:14:39.972Z,19.02
2018-04-10T06:15:20.574Z,18.99
2018-04-10T06:16:01.133Z,19.04
2018-04-10T06:16:41.629Z,19.14
2018-04-10T06:17:22.133Z,19.19
2018-04-10T06:18:02.644Z,19.19
2018-04-10T06:18:43.081Z,19.26
2018-04-10T06:19:23.560Z,19.13
2018-04-10T06:20:04.088Z,19.18
2018-04-10T06:20:44.567Z,19.11
2018-04-10T06:21:25.096Z,19.16
2018-04-10T06:22:05.561Z,19.16
2018-04-10T06:22:46.044Z,19.18
2018-04-10T06:23:26.555Z,19.26
2018-04-10T06:24:07.040Z,19.21
2018-04-10T06:24:47.556Z,19.16
2018-04-10T06:25:28.041Z,19.13
2018-04-10T06:26:08.497Z,19.1
2018-04-10T06:26:48.989Z,19.19
2018-04-10T06:27:29.518Z,19.08
2018-04-10T06:28:10.019Z,19.07
2018-04-10T06:28:50.499Z,19.04
2018-04-10T06:29:30.991Z,19.1
2018-04-10T06:30:11.453Z,19.1
2018-04-10T06:30:51.981Z,19.08
2018-04-10T06:31:32.469Z,19.13
2018-04-10T06:32:12.961Z,19.13
2018-04-10T06:32:53.459Z,19.23
2018-04-10T06:33:33.923Z,19.33
2018-04-10T06:34:14.465Z,19.16
2018-04-10T06:34:55.095Z,19.25
2018-04-10T06:35:35.592Z,19.22
2018-04-10T06:36:16.100Z,19.32
2018-04-10T06:36:56.570Z,19.22
2018-04-10T06:37:37.066Z,19.28
2018-04-10T06:38:17.576Z,19.25
2018-04-10T06:38:58.052Z,19.25
2018-04-10T06:39:38.554Z,19.18
2018-04-10T06:40:19.049Z,19.23
2018-04-10T06:40:59.573Z,19.19
2018-04-10T06:41:40.036Z,19.32
2018-04-10T06:42:20.518Z,19.29
2018-04-10T06:43:01.010Z,19.29
2018-04-10T06:43:41.519Z,19.39
2018-04-10T06:44:22.008Z,19.32
2018-04-10T06:45:02.485Z,19.26
2018-04-10T06:45:43.014Z,19.26
2018-04-10T06:46:23.514Z,19.25
2018-04-10T06:47:03.977Z,19.26
2018-04-10T06:47:44.495Z,19.29
2018-04-10T06:48:25.011Z,19.39
2018-04-10T06:49:05.473Z,19.4
2018-04-10T06:49:45.975Z,19.37
2018-04-10T06:50:26.452Z,19.58
2018-04-10T06:51:06.951Z,19.62
2018-04-10T06:51:47.467Z,19.63
2018-04-10T06:52:27.957Z,19.68
2018-04-10T06:53:08.465Z,19.76
2018-04-10T06:53:48.998Z,19.71
2018-04-10T06:54:29.505Z,19.8
2018-04-10T06:55:10.028Z,19.84
2018-04-10T06:55:50.552Z,19.84
2018-04-10T06:56:31.054Z,19.92
2018-04-10T06:57:11.572Z,19.91
2018-04-10T06:57:52.125Z,19.88
2018-04-10T06:58:32.623Z,19.95
2018-04-10T06:59:13.148Z,19.95
2018-04-10T06:59:53.676Z,19.92
2018-04-10T07:00:34.184Z,19.96
2018-04-10T07:01:14.930Z,20.05
2018-04-10T07:01:55.391Z,20.06
2018-04-10T07:02:35.934Z,20.14
2018-04-10T07:03:16.481Z,20.14
2018-04-10T07:03:57.005Z,20.17
2018-04-10T07:04:37.534Z,20.14
2018-04-10T07:05:18.061Z,20.21
2018-04-10T07:05:58.557Z,20.23
2018-04-10T07:06:39.072Z,20.31
2018-04-10T07:07:19.607Z,20.31
2018-04-10T07:08:00.118Z,20.39
2018-04-10T07:08:40.617Z,20.32
2018-04-10T07:09:21.133Z,20.35
2018-04-10T07:10:01.660Z,20.35
2018-04-10T07:10:42.175Z,20.41
2018-04-10T07:11:22.714Z,20.43
2018-04-10T07:12:03.221Z,20.43
2018-04-10T07:12:43.732Z,20.5
2018-04-10T07:13:24.247Z,20.57
2018-04-10T07:14:04.763Z,20.52
2018-04-10T07:14:45.293Z,20.52
2018-04-10T07:15:25.796Z,20.51
2018-04-10T07:16:06.336Z,20.51
2018-04-10T07:16:46.876Z,20.52
2018-04-10T07:17:27.395Z,20.54
2018-04-10T07:18:07.906Z,20.48
2018-04-10T07:18:48.459Z,20.52
2018-04-10T07:19:28.974Z,20.51
2018-04-10T07:20:09.492Z,20.57
2018-04-10T07:20:50.010Z,20.57
2018-04-10T07:21:30.525Z,20.61
2018-04-10T07:22:11.089Z,20.62
2018-04-10T07:22:51.602Z,20.64
2018-04-10T07:23:32.122Z,20.58
2018-04-10T07:24:12.646Z,20.69
2018-04-10T07:24:53.148Z,20.7
2018-04-10T07:25:33.681Z,20.73
2018-04-10T07:26:14.148Z,20.47
2018-04-10T07:26:54.663Z,20.52
2018-04-10T07:27:35.181Z,20.58
2018-04-10T07:28:15.722Z,20.59
2018-04-10T07:28:56.234Z,20.58
2018-04-10T07:29:36.761Z,20.7
2018-04-10T07:30:17.263Z,20.57
2018-04-10T07:30:57.789Z,20.73
2018-04-10T07:31:38.300Z,20.8
2018-04-10T07:32:18.820Z,20.67
2018-04-10T07:32:59.332Z,20.72
2018-04-10T07:33:39.849Z,20.82
2018-04-10T07:34:20.356Z,20.99
2018-04-10T07:35:00.877Z,21.07
2018-04-10T07:35:41.393Z,21.06
2018-04-10T07:36:21.962Z,21.01
2018-04-10T07:37:02.468Z,21.06
2018-04-10T07:37:42.991Z,21.1
2018-04-10T07:38:23.501Z,21.07
2018-04-10T07:39:04.016Z,21.06
2018-04-10T07:39:44.558Z,21.07
2018-04-10T07:40:25.059Z,21.09
2018-04-10T07:41:05.570Z,21.16
2018-04-10T07:41:46.129Z,21.1
2018-04-10T07:42:26.663Z,21.14
2018-04-10T07:43:07.186Z,21.27
2018-04-10T07:43:47.698Z,21.04
2018-04-10T07:44:28.208Z,21.1
2018-04-10T07:45:08.731Z,21.07
2018-04-10T07:45:49.237Z,21.14
2018-04-10T07:46:29.756Z,21.14
2018-04-10T07:47:10.293Z,21.27
2018-04-10T07:47:50.810Z,21.27
2018-04-10T07:48:31.305Z,21.29
2018-04-10T07:49:11.896Z,21.34
2018-04-10T07:49:52.415Z,21.34
2018-04-10T07:50:32.919Z,21.34
2018-04-10T07:51:13.449Z,21.31
2018-04-10T07:51:54.032Z,21.42
2018-04-10T07:52:34.548Z,21.46
2018-04-10T07:53:15.453Z,21.44
2018-04-10T07:53:55.830Z,21.5
2018-04-10T07:54:36.355Z,21.61
2018-04-10T07:55:16.874Z,21.62
2018-04-10T07:55:57.388Z,21.65
2018-04-10T07:56:37.908Z,21.69
2018-04-10T07:57:18.429Z,21.67
2018-04-10T07:57:58.940Z,21.71
2018-04-10T07:58:39.453Z,21.77
2018-04-10T07:59:19.972Z,21.75
2018-04-10T08:00:00.492Z,21.72
2018-04-10T08:00:41.079Z,21.74
2018-04-10T08:01:21.569Z,21.83
2018-04-10T08:02:02.067Z,21.86
2018-04-10T08:02:42.584Z,21.69
2018-04-10T08:03:23.122Z,21.65
2018-04-10T08:04:03.701Z,21.53
2018-04-10T08:04:44.209Z,21.5
2018-04-10T08:05:24.731Z,21.46
2018-04-10T08:06:05.268Z,21.52
2018-04-10T08:06:45.738Z,21.46
2018-04-10T08:07:26.243Z,21.62
2018-04-10T08:08:06.737Z,21.54
2018-04-10T08:08:47.248Z,21.65
2018-04-10T08:09:27.786Z,21.69
2018-04-10T08:10:08.249Z,21.72
2018-04-10T08:10:48.754Z,21.84
2018-04-10T08:11:29.284Z,21.92
2018-04-10T08:12:09.837Z,21.91
2018-04-10T08:12:50.306Z,22
2018-04-10T08:13:30.852Z,22.05
2018-04-10T08:14:11.464Z,22.06
2018-04-10T08:14:52.003Z,22.14
2018-04-10T08:15:32.462Z,22.21
2018-04-10T08:16:12.967Z,22.02
2018-04-10T08:16:53.481Z,22.12
2018-04-10T08:17:34.690Z,22.22
2018-04-10T08:18:15.219Z,22.15
2018-04-10T08:18:55.724Z,22.03
2018-04-10T08:19:36.241Z,22
2018-04-10T08:20:16.771Z,22
2018-04-10T08:20:57.267Z,21.92
2018-04-10T08:21:37.779Z,22.02
2018-04-10T08:22:18.349Z,21.99
2018-04-10T08:22:58.812Z,21.91
2018-04-10T08:23:39.356Z,21.94
2018-04-10T08:24:19.840Z,22.06
2018-04-10T08:25:00.591Z,22.07
2018-04-10T08:25:40.894Z,21.94
2018-04-10T08:26:21.377Z,21.91
2018-04-10T08:27:01.901Z,21.94
2018-04-10T08:27:42.393Z,21.96
2018-04-10T08:28:22.915Z,22.05
2018-04-10T08:29:03.378Z,22.1
2018-04-10T08:29:43.858Z,22.18
2018-04-10T08:30:24.504Z,22.17
2018-04-10T08:31:05.049Z,21.99
2018-04-10T08:31:45.590Z,22.02
2018-04-10T08:32:26.070Z,21.98
2018-04-10T08:33:06.615Z,21.99
2018-04-10T08:33:47.088Z,22.1
2018-04-10T08:34:27.621Z,22.15
2018-04-10T08:35:08.147Z,22.02
2018-04-10T08:35:48.600Z,22.03
2018-04-10T08:36:29.124Z,22.05
2018-04-10T08:37:09.622Z,22.17
2018-04-10T08:37:50.131Z,22.14
2018-04-10T08:38:30.655Z,22.2
2018-04-10T08:39:11.104Z,22.17
2018-04-10T08:39:51.603Z,22.17
2018-04-10T08:40:32.110Z,22.2
2018-04-10T08:41:12.611Z,22.03
2018-04-10T08:41:53.110Z,22.05
2018-04-10T08:42:33.635Z,22.15
2018-04-10T08:43:14.132Z,22.17
2018-04-10T08:43:54.654Z,22.17
2018-04-10T08:44:35.185Z,22.21
2018-04-10T08:45:15.776Z,22.18
2018-04-10T08:45:56.257Z,22
2018-04-10T08:46:36.701Z,21.94
2018-04-10T08:47:17.217Z,21.91
2018-04-10T08:47:57.713Z,21.99
2018-04-10T08:48:38.170Z,22.02